Kamloops, British Columbia

9:19 AM PDT on July 23, 2016 (GMT -0700)
Kamloops | | Change Station

Elev 1132 ft 50.70 °N, 120.44 °W | Updated 19 minutes ago

Mostly Cloudy
Mostly Cloudy
68 °F
Feels Like 68 °F
N
9
Wind Variable Wind from East

Today
High -- | Low -- °F
--% Chance of Precip.
Yesterday
High -- | Low -- °F
Precip. -- in
Pressure 30.13 in
Visibility 40.0 miles
Clouds Mostly Cloudy 7500 ft
Mostly Cloudy 10000 ft
Dew Point 50 °F
Humidity 52%
Rainfall 0.00 in
Snow Depth Not available.
5:16 AM 8:58 PM
Waning Gibbous, 84% visible
METAR CYKA 231600Z 09008KT 40SM BKN075 BKN100 20/10 A3012 RMK AC6AC1 SLP201 DENSITY ALT 1600FT
Pressure 30.13 in
Visibility 40.0 miles
Clouds Mostly Cloudy 7500 ft
Mostly Cloudy 10000 ft
Dew Point 50 °F
Humidity 52%
Rainfall 0.00 in
Snow Depth Not available.
5:16 AM 8:58 PM
Waning Gibbous, 84% visible
METAR CYKA 231600Z 09008KT 40SM BKN075 BKN100 20/10 A3012 RMK AC6AC1 SLP201 DENSITY ALT 1600FT

10-Day Weather Forecast

Almanac

Astronomy

Jul. 23, 2016 Rise Set
Actual Time
Civil Twilight
Nautical Twilight
Astronomical Twilight
Moon
Length of Visible Light
Length of Day
Tomorrow will be .
, % of the Moon is Illuminated

Today's Extremes

Country Highs Country Lows

Community

WunderPhotos

Upload Photos

1,926,857 photos uploaded!

WunderBlog® & News

Nearby

Air Quality

  Air Quality AQ Index Pollutant
Not available.

Snow Depth

Station Depth Elevation

Earthquake Activity

City Distance Mag. Time & Date
Minimum magnitude displayed is 2.5.

Coastal Water Temperatures

Place Temperature

Stations

Nearby Weather Stations

Station Location Temp. Windchill Dew Point Humidity Wind Precip. Elev Updated Type
                   

Watches & Warnings

There are currently no watches in effect.